Time;durP1;ratioP1;P1;durP2;ratioP2;P2;SDS_P1;SDS_P2;PMS_P1;PMS_P2;Temp;Humidity;BMP_temperature;BMP_pressure;BME280_temperature;BME280_humidity;BME280_pressure;Samples;Min_cycle;Max_cycle;Signal;HPM_P1;HPM_P2
2021/10/19 00:00:06;;;;;;;12.80;7.60;;;;;;;6.95;100.00;97606.16;5026041;28;20049;-67
2021/10/19 00:02:33;;;;;;;15.93;8.23;;;;;;;8.53;100.00;97917.72;5026142;28;20057;-66
2021/10/19 00:05:05;;;;;;;16.58;9.05;;;;;;;8.73;100.00;97897.56;5025685;28;20053;-67
2021/10/19 00:07:32;;;;;;;12.65;7.45;;;;;;;8.57;100.00;97885.50;5009997;28;20808;-66
2021/10/19 00:09:59;;;;;;;11.93;6.15;;;;;;;9.06;100.00;97923.28;5024666;28;20502;-67
2021/10/19 00:12:26;;;;;;;12.82;6.97;;;;;;;9.10;100.00;97919.50;5026219;28;20071;-67
2021/10/19 00:14:52;;;;;;;14.15;6.50;;;;;;;9.16;100.00;97920.13;5024065;28;20061;-67
2021/10/19 00:17:19;;;;;;;15.02;6.20;;;;;;;9.16;100.00;97911.81;5023689;28;20448;-66
2021/10/19 00:19:46;;;;;;;12.20;6.20;;;;;;;8.78;100.00;97853.19;5025420;28;20063;-66
2021/10/19 00:22:13;;;;;;;14.25;7.25;;;;;;;7.20;100.00;97605.19;5024003;28;20061;-66
2021/10/19 00:24:40;;;;;;;15.25;6.03;;;;;;;9.25;100.00;97926.34;5025435;28;20104;-66
2021/10/19 00:27:06;;;;;;;14.02;5.72;;;;;;;9.15;100.00;97888.09;5025396;28;20155;-66
2021/10/19 00:29:33;;;;;;;13.30;6.38;;;;;;;8.70;100.00;97829.19;5025012;28;20053;-66
2021/10/19 00:32:00;;;;;;;12.77;6.32;;;;;;;7.42;100.00;97626.91;5024122;28;20056;-66
2021/10/19 00:34:27;;;;;;;15.73;6.15;;;;;;;9.25;100.00;97922.81;5025006;28;20108;-67
2021/10/19 00:36:53;;;;;;;10.13;6.35;;;;;;;9.26;100.00;97925.22;5023391;28;20550;-67
2021/10/19 00:39:20;;;;;;;11.25;6.72;;;;;;;9.21;100.00;97920.69;5023908;28;20056;-67
2021/10/19 00:41:47;;;;;;;11.13;5.70;;;;;;;9.25;100.00;97929.13;5024775;28;20061;-67
2021/10/19 00:44:14;;;;;;;13.25;6.97;;;;;;;8.99;100.00;97904.47;5024092;28;20073;-67
2021/10/19 00:46:42;;;;;;;14.80;7.10;;;;;;;8.88;100.00;97919.88;5024566;28;20057;-67
2021/10/19 00:49:08;;;;;;;14.57;7.57;;;;;;;7.42;100.00;97794.22;5024841;28;20049;-67
2021/10/19 00:51:36;;;;;;;13.02;6.60;;;;;;;8.32;100.00;97925.16;5023460;28;20557;-67
2021/10/19 00:54:03;;;;;;;13.88;7.60;;;;;;;8.51;100.00;97925.53;5025093;28;20477;-66
2021/10/19 00:56:30;;;;;;;13.23;8.18;;;;;;;8.42;100.00;97922.03;5023294;28;20056;-67
2021/10/19 00:58:56;;;;;;;12.27;6.88;;;;;;;8.03;100.00;97856.16;5023157;28;20060;-66
2021/10/19 01:01:25;;;;;;;12.25;7.13;;;;;;;8.50;100.00;97929.44;5024525;28;20076;-68
2021/10/19 01:03:52;;;;;;;12.38;6.93;;;;;;;8.57;100.00;97935.22;5025175;28;20564;-67
2021/10/19 01:06:19;;;;;;;13.95;7.50;;;;;;;8.04;100.00;97896.41;5024216;28;20534;-66
2021/10/19 01:08:46;;;;;;;13.70;7.50;;;;;;;8.24;100.00;97920.50;5024657;28;20057;-66
2021/10/19 01:11:13;;;;;;;13.40;6.80;;;;;;;7.89;100.00;97874.91;5024775;28;20060;-66
2021/10/19 01:13:40;;;;;;;14.43;7.30;;;;;;;8.26;100.00;97923.75;5024449;28;20500;-67
2021/10/19 01:16:12;;;;;;;13.90;7.35;;;;;;;8.32;100.00;97911.34;5022660;28;20061;-67
2021/10/19 01:18:40;;;;;;;15.00;8.30;;;;;;;8.02;100.00;97851.78;5023915;28;20068;-66
2021/10/19 01:21:08;;;;;;;18.25;8.57;;;;;;;8.49;100.00;97919.53;5023937;28;20057;-67
2021/10/19 01:23:35;;;;;;;18.02;9.20;;;;;;;8.42;100.00;97922.03;5022828;28;20049;-66
2021/10/19 01:26:08;;;;;;;16.85;8.07;;;;;;;8.43;100.00;97929.16;5023835;28;20520;-67
2021/10/19 01:28:38;;;;;;;17.25;7.25;;;;;;;8.29;100.00;97889.94;5022840;28;20057;-66
2021/10/19 01:31:05;;;;;;;27.23;14.00;;;;;;;8.53;100.00;97917.72;5022907;28;20053;-66
2021/10/19 01:33:33;;;;;;;46.47;21.08;;;;;;;8.59;100.00;97917.19;5007352;28;20066;-66
2021/10/19 01:36:01;;;;;;;16.67;8.98;;;;;;;8.30;100.00;97875.03;5036105;28;20056;-67
2021/10/19 01:38:28;;;;;;;21.50;9.60;;;;;;;8.26;100.00;97851.97;5024214;28;20496;-66
2021/10/19 01:40:57;;;;;;;19.83;9.70;;;;;;;8.57;100.00;97913.13;5023495;28;20479;-66
2021/10/19 01:43:25;;;;;;;14.00;8.82;;;;;;;8.53;100.00;97876.31;5023994;28;20128;-67
2021/10/19 01:45:55;;;;;;;20.30;10.95;;;;;;;8.78;100.00;97931.34;5023730;28;20053;-67
2021/10/19 01:48:22;;;;;;;21.38;10.68;;;;;;;9.00;100.00;97928.22;5023991;28;20075;-66
2021/10/19 01:50:49;;;;;;;15.52;9.57;;;;;;;8.50;100.00;97880.56;5022684;28;20057;-66
2021/10/19 01:53:16;;;;;;;18.38;8.15;;;;;;;8.85;100.00;97937.13;5024204;28;20491;-67
2021/10/19 01:55:43;;;;;;;18.50;9.55;;;;;;;8.35;100.00;97872.03;5022444;28;20080;-66
2021/10/19 01:58:10;;;;;;;20.88;10.57;;;;;;;8.82;100.00;97937.00;5022641;28;20057;-66
2021/10/19 02:00:38;;;;;;;35.95;15.60;;;;;;;8.80;100.00;97934.56;5022167;28;20053;-66
2021/10/19 02:03:09;;;;;;;24.15;12.10;;;;;;;8.79;100.00;97921.06;5023934;28;20054;-66
2021/10/19 02:05:36;;;;;;;18.13;9.63;;;;;;;8.83;100.00;97944.13;5023974;28;20132;-67
2021/10/19 02:08:04;;;;;;;29.25;14.23;;;;;;;8.46;100.00;97884.31;5023870;28;20127;-67
2021/10/19 02:10:33;;;;;;;19.98;9.98;;;;;;;8.75;100.00;97932.03;5022190;28;20608;-66
2021/10/19 02:13:00;;;;;;;17.10;7.35;;;;;;;8.67;100.00;97940.34;5024322;28;20141;-65
2021/10/19 02:15:27;;;;;;;11.75;6.75;;;;;;;8.66;100.00;97933.22;5022129;28;20063;-67
2021/10/19 02:17:55;;;;;;;14.57;8.48;;;;;;;8.69;100.00;97933.34;5023200;28;20061;-67
2021/10/19 02:20:23;;;;;;;32.53;13.77;;;;;;;8.73;100.00;97934.31;5023440;28;20055;-67
2021/10/19 02:22:51;;;;;;;25.45;11.27;;;;;;;8.67;100.00;97934.84;5021970;28;20045;-68
2021/10/19 02:25:19;;;;;;;24.67;9.80;;;;;;;8.40;100.00;97946.38;5023532;28;20049;-68
2021/10/19 02:27:46;;;;;;;18.48;8.80;;;;;;;7.89;100.00;97910.78;5023387;28;20064;-68
2021/10/19 02:30:14;;;;;;;16.25;8.13;;;;;;;7.59;100.00;97938.28;5023477;28;20049;-67
2021/10/19 02:32:43;;;;;;;16.98;6.93;;;;;;;7.36;100.00;97878.22;5023905;28;20488;-68
2021/10/19 02:35:12;;;;;;;19.30;7.10;;;;;;;7.31;100.00;97851.66;5021926;28;20053;-67
2021/10/19 02:37:40;;;;;;;25.80;7.78;;;;;;;5.45;100.00;97570.22;5023014;28;20060;-67
2021/10/19 02:40:09;;;;;;;12.73;7.10;;;;;;;7.35;100.00;97888.41;5022972;28;20053;-68
2021/10/19 02:42:36;;;;;;;12.60;7.72;;;;;;;7.92;100.00;97968.03;5023453;28;20362;-68
2021/10/19 02:45:04;;;;;;;15.45;8.20;;;;;;;7.93;100.00;97958.63;5022105;28;20077;-67
2021/10/19 02:47:31;;;;;;;17.02;9.73;;;;;;;7.98;100.00;97972.22;5023756;28;20157;-67
2021/10/19 02:49:58;;;;;;;18.40;10.68;;;;;;;8.08;100.00;97966.34;5023330;28;20886;-68
2021/10/19 02:52:24;;;;;;;20.42;11.77;;;;;;;7.70;100.00;97917.50;5021782;28;20050;-66
2021/10/19 02:54:51;;;;;;;16.77;10.35;;;;;;;8.07;100.00;97953.69;5021690;28;20053;-68
2021/10/19 02:57:21;;;;;;;23.50;10.82;;;;;;;7.65;100.00;97887.34;5021713;28;20057;-67
2021/10/19 02:59:48;;;;;;;19.63;9.70;;;;;;;7.45;100.00;97870.72;5021951;28;20054;-67
2021/10/19 03:02:15;;;;;;;24.08;11.95;;;;;;;7.53;100.00;97993.94;5022927;28;20049;-67
2021/10/19 03:04:42;;;;;;;15.32;8.10;;;;;;;7.76;100.00;97972.47;5021720;28;20049;-66
2021/10/19 03:07:08;;;;;;;16.65;8.30;;;;;;;7.87;100.00;97968.22;5024490;28;20518;-66
2021/10/19 03:09:35;;;;;;;17.30;9.35;;;;;;;7.96;100.00;97949.66;5026597;28;20053;-66
2021/10/19 03:12:02;;;;;;;14.93;8.48;;;;;;;7.46;100.00;97861.31;5026631;28;20045;-66
2021/10/19 03:14:29;;;;;;;13.38;7.97;;;;;;;8.18;100.00;97965.97;5026424;28;20059;-67
2021/10/19 03:16:56;;;;;;;13.98;8.60;;;;;;;8.27;100.00;97961.22;5025204;28;20140;-67
2021/10/19 03:19:23;;;;;;;14.02;7.55;;;;;;;8.32;100.00;97959.09;5026758;28;20069;-66
2021/10/19 03:21:49;;;;;;;14.80;8.07;;;;;;;8.36;100.00;97964.78;5026389;28;20061;-67
2021/10/19 03:24:16;;;;;;;17.88;7.75;;;;;;;8.36;100.00;97950.97;5024947;28;20049;-67
2021/10/19 03:26:43;;;;;;;26.35;12.10;;;;;;;8.21;100.00;97926.66;5026267;28;20065;-67
2021/10/19 03:29:10;;;;;;;76.85;32.28;;;;;;;8.50;100.00;97968.09;5026058;28;20054;-66
2021/10/19 03:31:36;;;;;;;47.70;19.73;;;;;;;8.09;100.00;97908.06;5026231;28;20067;-66
2021/10/19 03:34:04;;;;;;;32.97;15.15;;;;;;;8.52;100.00;97974.88;5026307;28;20053;-66
2021/10/19 03:36:31;;;;;;;28.48;14.90;;;;;;;8.74;100.00;97982.88;5026379;28;20072;-66
2021/10/19 03:38:58;;;;;;;36.28;17.25;;;;;;;8.51;100.00;97931.88;5025122;28;20297;-66
2021/10/19 03:41:24;;;;;;;33.67;18.67;;;;;;;8.93;100.00;97974.13;5025722;28;20064;-66
2021/10/19 03:43:51;;;;;;;29.55;15.75;;;;;;;8.91;100.00;97987.47;5026103;28;20160;-68
2021/10/19 03:46:18;;;;;;;23.75;12.73;;;;;;;8.91;100.00;97973.66;5025967;28;20500;-67
2021/10/19 03:48:45;;;;;;;24.40;14.07;;;;;;;9.03;100.00;97979.25;5025803;28;20144;-67
2021/10/19 03:51:12;;;;;;;35.92;17.55;;;;;;;8.56;100.00;97875.63;5024375;28;20053;-66
2021/10/19 03:53:38;;;;;;;28.55;15.57;;;;;;;9.09;100.00;97988.94;5025925;28;20398;-66
2021/10/19 03:56:05;;;;;;;27.42;13.13;;;;;;;9.00;100.00;97971.63;5025202;28;20053;-67
2021/10/19 03:58:33;;;;;;;25.63;13.25;;;;;;;9.17;100.00;97988.06;5026220;28;20236;-66
2021/10/19 04:01:00;;;;;;;25.63;12.50;;;;;;;9.21;100.00;97989.03;5025641;28;20088;-66
2021/10/19 04:03:27;;;;;;;25.00;11.60;;;;;;;9.10;100.00;97993.34;5025586;28;20143;-66
2021/10/19 04:05:54;;;;;;;22.70;11.10;;;;;;;8.93;100.00;97988.75;5025425;28;20225;-65
2021/10/19 04:08:21;;;;;;;21.42;10.82;;;;;;;8.97;100.00;97994.41;5024002;28;20053;-66
2021/10/19 04:10:47;;;;;;;23.33;10.88;;;;;;;8.96;100.00;97995.56;5025644;28;20054;-66
2021/10/19 04:13:15;;;;;;;20.98;11.13;;;;;;;9.00;100.00;98000.09;5025622;28;20049;-67
2021/10/19 04:15:42;;;;;;;36.28;16.33;;;;;;;9.11;100.00;97993.00;5023771;28;20057;-66
2021/10/19 04:18:08;;;;;;;66.88;27.52;;;;;;;8.93;100.00;97993.47;5023993;28;20525;-66
2021/10/19 04:20:35;;;;;;;41.80;18.00;;;;;;;8.96;100.00;97998.34;5024911;28;20049;-66
2021/10/19 04:23:02;;;;;;;28.13;14.10;;;;;;;8.20;100.00;97958.16;5023572;28;20060;-69
2021/10/19 04:25:29;;;;;;;40.75;17.67;;;;;;;8.59;100.00;98010.25;5025395;28;20432;-67
2021/10/19 04:27:56;;;;;;;56.80;23.55;;;;;;;8.81;100.00;98023.78;5024812;28;20050;-66
2021/10/19 04:30:23;;;;;;;67.57;25.27;;;;;;;8.05;100.00;97889.72;5023871;28;20061;-65
2021/10/19 04:32:50;;;;;;;50.83;23.63;;;;;;;8.80;100.00;98016.63;5025169;28;20133;-68
2021/10/19 04:35:16;;;;;;;53.35;24.60;;;;;;;8.30;100.00;97933.78;5025010;28;20057;-66
2021/10/19 04:37:43;;;;;;;135.27;60.70;;;;;;;8.66;100.00;97977.41;5023263;28;20053;-66
2021/10/19 04:40:11;;;;;;;68.47;31.38;;;;;;;8.69;100.00;97987.78;5023320;28;20148;-66
2021/10/19 04:42:39;;;;;;;58.92;29.35;;;;;;;8.82;100.00;98003.31;5023204;28;20508;-66
2021/10/19 04:45:07;;;;;;;64.85;32.28;;;;;;;8.83;100.00;98027.03;5023302;28;20170;-66
2021/10/19 04:47:34;;;;;;;79.03;40.47;;;;;;;8.43;100.00;97951.22;5024398;28;20061;-66
2021/10/19 04:50:05;;;;;;;83.10;41.00;;;;;;;8.46;100.00;97972.66;5024932;28;20076;-66
2021/10/19 04:52:32;;;;;;;83.45;42.58;;;;;;;8.75;100.00;98019.59;5025136;28;20053;-64
2021/10/19 04:54:59;;;;;;;76.13;38.35;;;;;;;8.80;100.00;98022.97;4998618;28;20045;-68
2021/10/19 04:57:28;;;;;;;69.70;35.78;;;;;;;8.84;100.00;98023.09;5024192;28;20434;-69
2021/10/19 04:59:54;;;;;;;60.83;33.17;;;;;;;8.73;100.00;98021.88;5024597;28;20052;-70
2021/10/19 05:02:21;;;;;;;62.88;32.30;;;;;;;8.76;100.00;98021.19;5024246;28;20089;-72
2021/10/19 05:04:48;;;;;;;55.65;26.67;;;;;;;8.67;100.00;98028.75;5022984;28;20057;-69
2021/10/19 05:07:15;;;;;;;43.75;24.05;;;;;;;8.49;100.00;98038.25;5024086;28;20050;-69
2021/10/19 05:09:42;;;;;;;44.92;22.20;;;;;;;8.53;100.00;98045.56;5024701;28;20054;-71
2021/10/19 05:12:08;;;;;;;33.65;17.05;;;;;;;8.59;100.00;98051.69;5024644;28;20053;-70
2021/10/19 05:14:35;;;;;;;38.15;16.42;;;;;;;8.57;100.00;98056.72;5022988;28;20050;-68
2021/10/19 05:17:02;;;;;;;36.30;16.00;;;;;;;8.31;100.00;98006.38;5004105;28;20061;-68
2021/10/19 05:19:29;;;;;;;24.70;12.15;;;;;;;8.78;100.00;98052.06;5004546;28;20145;-68
2021/10/19 05:21:56;;;;;;;24.10;12.50;;;;;;;8.82;100.00;98053.03;5004335;28;20049;-68
2021/10/19 05:24:23;;;;;;;18.17;10.82;;;;;;;8.38;100.00;97990.06;5004363;28;20662;-68
2021/10/19 05:26:50;;;;;;;20.58;10.57;;;;;;;8.86;100.00;98065.84;5003195;28;20145;-68
2021/10/19 05:29:17;;;;;;;23.98;12.82;;;;;;;8.66;100.00;98038.97;5003047;28;20068;-69
2021/10/19 05:31:43;;;;;;;46.03;18.48;;;;;;;8.84;100.00;98072.81;5004249;28;20497;-68
2021/10/19 05:34:10;;;;;;;45.67;20.38;;;;;;;8.87;100.00;98083.22;5004165;28;20049;-68
2021/10/19 05:36:37;;;;;;;69.35;28.55;;;;;;;8.97;100.00;98078.13;5003827;28;20128;-68
2021/10/19 05:39:04;;;;;;;57.20;28.02;;;;;;;8.89;100.00;98084.50;5004218;28;20050;-68
2021/10/19 05:41:31;;;;;;;59.35;30.30;;;;;;;8.85;100.00;98085.53;5003762;28;20501;-68
2021/10/19 05:43:58;;;;;;;72.93;37.75;;;;;;;8.94;100.00;98086.28;5004203;28;20540;-67
2021/10/19 05:46:25;;;;;;;83.75;42.33;;;;;;;8.94;100.00;98089.84;5002590;28;20056;-67
2021/10/19 05:48:52;;;;;;;65.90;34.40;;;;;;;9.09;100.00;98096.72;5003817;28;20432;-68
2021/10/19 05:51:19;;;;;;;59.67;31.20;;;;;;;9.20;100.00;98097.94;5003633;28;20444;-68
2021/10/19 05:53:45;;;;;;;54.35;29.70;;;;;;;9.35;100.00;98104.84;5003508;28;20049;-68
2021/10/19 05:56:12;;;;;;;43.83;25.65;;;;;;;9.42;100.00;98111.47;5002360;28;20125;-67
2021/10/19 05:58:39;;;;;;;60.08;29.48;;;;;;;9.52;100.00;98116.59;5004100;28;20456;-67
2021/10/19 06:01:06;;;;;;;55.42;27.15;;;;;;;9.69;100.00;98110.91;5003961;28;20543;-70
2021/10/19 06:03:33;;;;;;;40.13;20.95;;;;;;;7.86;100.00;97792.81;5011811;28;20049;-63
2021/10/19 06:06:08;;;;;;;34.00;16.92;;;;;;;10.09;100.00;98114.81;5022261;28;20614;-69
2021/10/19 06:08:35;;;;;;;25.15;14.68;;;;;;;9.65;100.00;98043.59;5020959;28;20441;-69
2021/10/19 06:11:02;;;;;;;20.20;12.75;;;;;;;8.79;100.00;97904.50;5023285;28;20042;-61
2021/10/19 06:13:29;;;;;;;19.08;11.55;;;;;;;10.49;100.00;98126.13;5023029;28;20060;-60
2021/10/19 06:15:56;;;;;;;15.15;9.50;;;;;;;10.67;100.00;98131.09;5022264;28;20468;-67
2021/10/19 06:18:24;;;;;;;19.27;10.15;;;;;;;10.37;100.00;98054.06;5021240;28;20053;-61
2021/10/19 06:20:52;;;;;;;17.67;10.05;;;;;;;11.16;100.00;98131.13;5022201;28;20053;-64
2021/10/19 06:23:19;;;;;;;16.65;9.45;;;;;;;10.97;100.00;98100.41;5021648;28;20061;-63
2021/10/19 06:25:47;;;;;;;16.38;10.00;;;;;;;11.37;100.00;98137.34;5022741;28;20057;-67
2021/10/19 06:28:14;;;;;;;17.38;10.13;;;;;;;11.69;100.00;98136.41;5021789;28;20049;-62
2021/10/19 06:30:40;;;;;;;17.63;9.45;;;;;;;11.68;100.00;98137.56;5022314;28;20316;-61
2021/10/19 06:33:07;;;;;;;15.20;9.20;;;;;;;11.82;99.22;98144.31;5022153;28;20045;-61
2021/10/19 06:35:34;;;;;;;16.17;9.07;;;;;;;12.02;99.99;98142.53;5023375;28;20046;-61
2021/10/19 06:38:00;;;;;;;19.80;10.30;;;;;;;12.31;97.11;98144.16;5022717;28;20200;-60
2021/10/19 06:40:27;;;;;;;21.13;9.98;;;;;;;12.38;95.31;98122.91;5022553;28;20056;-59
2021/10/19 06:42:54;;;;;;;18.98;11.65;;;;;;;12.65;94.53;98149.88;5025412;28;20053;-59
2021/10/19 06:45:21;;;;;;;30.85;16.33;;;;;;;11.79;94.71;98008.22;5026101;28;20065;-70
2021/10/19 06:47:48;;;;;;;33.90;19.15;;;;;;;12.54;94.38;98148.78;5025804;28;20068;-69
2021/10/19 06:50:14;;;;;;;35.80;19.35;;;;;;;11.81;93.57;98075.28;5025769;28;20056;-72
2021/10/19 06:52:41;;;;;;;39.63;21.38;;;;;;;11.61;94.18;98073.47;5024902;28;20053;-66
2021/10/19 06:55:08;;;;;;;38.22;19.85;;;;;;;11.60;95.24;98044.91;5026301;28;20076;-71
2021/10/19 06:57:43;;;;;;;34.00;19.00;;;;;;;12.32;94.89;98146.56;5024480;28;20140;-70
2021/10/19 07:00:12;;;;;;;32.33;19.33;;;;;;;11.65;93.88;98043.91;5025084;28;20060;-69
2021/10/19 07:02:56;;;;;;;30.33;18.13;;;;;;;12.23;94.94;98128.44;5025257;28;20480;-70
2021/10/19 07:05:23;;;;;;;30.17;16.70;;;;;;;12.48;94.64;98155.75;5025319;28;20103;-74
2021/10/19 07:07:49;;;;;;;27.60;16.75;;;;;;;12.71;94.06;98162.31;5022751;28;20049;-67
2021/10/19 07:10:16;;;;;;;25.50;15.25;;;;;;;10.98;93.45;97847.78;5026040;28;20049;-61
2021/10/19 07:12:44;;;;;;;25.73;15.30;;;;;;;12.63;92.75;98079.91;5024921;28;20053;-74
2021/10/19 07:15:12;;;;;;;27.13;14.63;;;;;;;13.16;92.81;98139.69;5026317;28;20188;-69
2021/10/19 07:17:38;;;;;;;25.48;13.95;;;;;;;12.25;91.70;97968.56;5026313;28;20053;-72
2021/10/19 07:20:07;;;;;;;27.58;15.55;;;;;;;13.52;91.06;98134.59;5026049;28;20144;-69
2021/10/19 07:22:35;;;;;;;26.33;15.63;;;;;;;13.73;90.27;98139.03;5025540;28;20054;-62
2021/10/19 07:25:03;;;;;;;24.77;15.48;;;;;;;13.92;88.87;98137.06;5032191;28;20055;-61
2021/10/19 07:27:35;;;;;;;25.43;14.57;;;;;;;12.06;87.40;97816.53;5031407;28;20508;-62
2021/10/19 07:30:03;;;;;;;24.90;15.23;;;;;;;14.37;86.26;98142.03;5022289;28;20049;-63
2021/10/19 07:32:29;;;;;;;24.17;14.13;;;;;;;14.13;85.32;98092.13;4998266;28;20056;-63
2021/10/19 07:34:56;;;;;;;22.88;12.65;;;;;;;13.99;84.16;98041.69;5023160;28;20059;-66
2021/10/19 07:37:23;;;;;;;18.88;11.07;;;;;;;14.74;80.45;98140.31;5024834;28;20049;-61
2021/10/19 07:39:49;;;;;;;19.05;11.82;;;;;;;14.89;79.17;98156.16;5026455;28;20049;-61
2021/10/19 07:42:16;;;;;;;23.73;11.32;;;;;;;14.68;78.46;98108.34;5025194;28;20041;-64
2021/10/19 07:44:43;;;;;;;16.90;10.10;;;;;;;14.97;75.67;98155.09;5025262;28;20164;-67
2021/10/19 07:47:10;;;;;;;19.15;10.05;;;;;;;14.72;71.24;98137.09;5023540;28;20080;-61
2021/10/19 07:49:36;;;;;;;13.40;8.55;;;;;;;14.09;67.53;98013.22;5031844;28;20107;-66
2021/10/19 07:52:03;;;;;;;17.50;9.70;;;;;;;14.57;69.93;98165.91;5024629;28;20061;-67
2021/10/19 07:54:30;;;;;;;27.45;12.55;;;;;;;14.34;70.83;98075.84;5024614;28;20045;-62
2021/10/19 07:56:57;;;;;;;13.27;7.95;;;;;;;14.21;64.55;98054.88;5023103;28;20528;-69
2021/10/19 07:59:26;;;;;;;18.30;9.10;;;;;;;14.85;67.27;98163.66;5021143;28;20512;-61
2021/10/19 08:01:52;;;;;;;14.98;8.25;;;;;;;15.38;66.16;98154.22;5025459;28;20049;-66
2021/10/19 08:04:19;;;;;;;11.90;7.85;;;;;;;15.24;65.73;98086.97;5025232;28;20558;-62
2021/10/19 08:06:46;;;;;;;10.65;8.00;;;;;;;14.06;61.66;97933.97;5024785;28;20049;-66
2021/10/19 08:09:13;;;;;;;14.88;7.85;;;;;;;15.11;59.55;98152.56;5022900;28;20127;-72
2021/10/19 08:11:40;;;;;;;12.57;7.20;;;;;;;13.85;58.20;97910.53;5023579;28;20160;-62
2021/10/19 08:14:06;;;;;;;12.32;7.43;;;;;;;15.20;61.69;98080.53;5024085;28;20064;-66
2021/10/19 08:16:33;;;;;;;15.00;8.73;;;;;;;15.82;61.11;98152.50;5021136;28;20128;-62
2021/10/19 08:19:00;;;;;;;10.35;7.60;;;;;;;15.26;59.52;98061.47;5023107;28;20080;-63
2021/10/19 08:21:28;;;;;;;12.32;7.45;;;;;;;16.20;57.57;98157.81;5023331;28;20195;-61
2021/10/19 08:23:55;;;;;;;10.25;7.07;;;;;;;16.23;53.25;98151.47;5025119;28;20128;-71
2021/10/19 08:26:24;;;;;;;11.73;7.22;;;;;;;16.23;54.91;98151.47;5024617;28;20559;-68
2021/10/19 08:28:53;;;;;;;13.27;7.53;;;;;;;14.06;54.58;97825.31;5024079;28;20050;-66
2021/10/19 08:31:21;;;;;;;10.38;6.85;;;;;;;15.99;54.41;98090.47;5023655;28;20049;-70
2021/10/19 08:33:50;;;;;;;10.40;6.55;;;;;;;16.63;53.43;98152.78;5024435;28;20042;-63
2021/10/19 08:36:18;;;;;;;8.90;6.65;;;;;;;16.48;51.80;98101.47;5023925;28;20132;-71
2021/10/19 08:38:46;;;;;;;22.35;11.07;;;;;;;16.69;51.36;98117.66;5023418;28;20058;-67
2021/10/19 08:41:14;;;;;;;10.95;8.00;;;;;;;16.91;50.94;98153.06;5023735;28;20196;-61
2021/10/19 08:43:41;;;;;;;11.80;7.22;;;;;;;17.14;52.58;98134.06;5023976;28;20151;-70
2021/10/19 08:46:11;;;;;;;16.73;8.80;;;;;;;17.07;51.03;98139.63;5023903;28;20045;-59
2021/10/19 08:48:39;;;;;;;12.38;7.85;;;;;;;16.90;54.13;98140.28;5024045;28;20045;-73
2021/10/19 08:51:10;;;;;;;12.13;7.05;;;;;;;16.69;52.15;98142.84;5023593;28;20142;-71
2021/10/19 08:53:39;;;;;;;12.68;8.25;;;;;;;16.35;55.27;98070.13;5024193;28;20045;-63
2021/10/19 08:56:06;;;;;;;10.50;7.25;;;;;;;16.59;53.85;98036.03;5023756;28;20060;-62
2021/10/19 08:58:33;;;;;;;10.38;7.18;;;;;;;17.35;53.50;98125.84;5023361;28;20071;-62
2021/10/19 09:01:08;;;;;;;10.05;7.13;;;;;;;17.01;52.03;98101.97;5021075;28;20151;-67
2021/10/19 09:03:46;;;;;;;15.23;8.10;;;;;;;17.03;53.93;98125.59;5021393;28;20671;-62
2021/10/19 09:06:13;;;;;;;12.02;7.47;;;;;;;17.05;53.19;98125.22;5023274;28;20042;-63
2021/10/19 09:08:49;;;;;;;12.52;7.53;;;;;;;16.96;53.23;98127.53;5024284;28;20072;-67
2021/10/19 09:11:16;;;;;;;12.48;8.32;;;;;;;16.29;55.53;98057.69;5023860;28;20057;-69
2021/10/19 09:13:55;;;;;;;11.85;7.20;;;;;;;16.42;55.53;98075.00;5022818;28;20046;-69
2021/10/19 09:16:39;;;;;;;15.52;8.55;;;;;;;16.74;56.47;98148.09;5029053;28;20049;-63
2021/10/19 09:19:11;;;;;;;11.25;7.80;;;;;;;17.04;55.25;98126.41;5031812;28;20290;-64
2021/10/19 09:22:18;;;;;;;9.05;7.93;;;;;;;17.12;53.54;98120.47;5002977;28;20053;-67
2021/10/19 09:24:49;;;;;;;13.43;7.15;;;;;;;17.26;52.97;98091.78;5004114;28;20064;-63
2021/10/19 09:27:16;;;;;;;12.73;8.60;;;;;;;17.47;52.64;98080.75;5004940;28;20072;-66
2021/10/19 09:29:49;;;;;;;9.63;7.28;;;;;;;17.84;51.81;98104.63;5004114;28;20054;-66
2021/10/19 09:32:18;;;;;;;8.95;7.03;;;;;;;18.08;50.22;98105.94;5004693;28;20057;-65
2021/10/19 09:34:46;;;;;;;10.48;7.07;;;;;;;17.98;48.93;98106.69;5004267;28;20064;-63
2021/10/19 09:37:20;;;;;;;11.43;7.45;;;;;;;17.80;51.25;98117.78;5004231;28;20058;-63
2021/10/19 09:39:50;;;;;;;10.95;9.02;;;;;;;18.05;53.28;98101.13;5023197;28;20075;-63
2021/10/19 09:42:26;;;;;;;11.88;8.27;;;;;;;18.20;52.16;98108.38;5023167;28;20064;-64
2021/10/19 09:44:57;;;;;;;22.52;10.77;;;;;;;18.05;52.60;98106.72;5023812;28;20049;-63
2021/10/19 09:47:38;;;;;;;37.78;15.15;;;;;;;15.91;53.20;97786.97;5022756;28;20053;-65
2021/10/19 09:50:09;;;;;;;17.75;9.70;;;;;;;16.78;53.77;98000.59;5022140;28;20198;-64
2021/10/19 09:52:38;;;;;;;27.92;12.45;;;;;;;17.43;54.33;98097.53;5010021;28;20560;-62
2021/10/19 09:55:09;;;;;;;23.92;11.77;;;;;;;17.35;53.70;98095.06;5020018;28;21451;-67
2021/10/19 09:57:38;;;;;;;16.67;10.27;;;;;;;16.78;55.38;98042.59;5023087;28;20056;-64
2021/10/19 10:00:06;;;;;;;14.48;9.40;;;;;;;17.08;55.64;98093.63;5022925;28;20097;-73
2021/10/19 10:02:33;;;;;;;12.95;8.90;;;;;;;17.09;57.04;98089.63;5023209;28;20056;-69
2021/10/19 10:05:04;;;;;;;12.88;8.65;;;;;;;17.23;54.07;98058.97;5022544;28;20522;-62
2021/10/19 10:07:35;;;;;;;15.80;9.88;;;;;;;17.10;56.36;98082.84;5023435;28;20164;-69
2021/10/19 10:10:04;;;;;;;17.50;9.77;;;;;;;16.81;56.01;98011.03;5022616;28;20053;-62
2021/10/19 10:12:32;;;;;;;30.85;13.57;;;;;;;17.08;55.87;98046.03;5023291;28;20136;-63
2021/10/19 10:14:59;;;;;;;18.58;9.40;;;;;;;17.33;55.12;98066.63;5021858;28;20045;-63
2021/10/19 10:17:26;;;;;;;14.25;9.10;;;;;;;16.35;54.97;97924.72;5022517;28;20050;-66
2021/10/19 10:20:04;;;;;;;14.38;9.60;;;;;;;17.08;54.52;98029.25;5025179;28;20068;-61
2021/10/19 10:22:30;;;;;;;11.38;7.95;;;;;;;17.80;52.05;98060.94;5026886;28;20052;-70
2021/10/19 10:25:05;;;;;;;13.43;9.13;;;;;;;17.69;51.43;98034.84;5025432;28;20588;-65
2021/10/19 10:27:32;;;;;;;13.60;10.07;;;;;;;17.09;51.30;97974.84;5025281;28;20042;-71
2021/10/19 10:29:59;;;;;;;11.63;8.60;;;;;;;17.47;51.49;98002.31;5026385;28;20512;-75
2021/10/19 10:32:34;;;;;;;13.93;9.40;;;;;;;18.64;51.38;98050.03;5027052;28;20057;-64
2021/10/19 10:35:09;;;;;;;13.90;8.45;;;;;;;19.24;50.31;98056.47;5025776;28;20068;-67
2021/10/19 10:37:45;;;;;;;11.30;8.65;;;;;;;19.94;48.70;98065.97;5026766;28;20137;-69
2021/10/19 10:40:24;;;;;;;10.90;7.90;;;;;;;20.80;46.12;98046.25;5019490;28;20054;-63
2021/10/19 10:42:51;;;;;;;12.32;8.68;;;;;;;19.78;46.90;98046.75;5025429;28;20045;-60
2021/10/19 10:45:27;;;;;;;14.88;8.68;;;;;;;18.04;48.57;97920.03;5025991;28;20057;-71
2021/10/19 10:47:57;;;;;;;10.88;8.13;;;;;;;19.63;49.12;98038.75;5026416;28;20250;-65
2021/10/19 10:50:25;;;;;;;10.57;8.18;;;;;;;20.21;47.29;98008.03;5026553;28;20049;-64
2021/10/19 10:53:09;;;;;;;15.70;9.73;;;;;;;20.06;47.72;97938.94;5025900;28;20169;-68
2021/10/19 10:55:37;;;;;;;11.82;8.30;;;;;;;20.84;46.92;98024.50;5024104;28;20049;-65
2021/10/19 10:58:04;;;;;;;20.27;9.85;;;;;;;20.84;46.09;98024.50;5024729;28;20045;-66
2021/10/19 11:00:31;;;;;;;10.88;9.00;;;;;;;21.12;45.19;98018.66;5025231;28;20664;-66
2021/10/19 11:03:12;;;;;;;12.70;9.05;;;;;;;20.83;45.83;98018.06;5025557;28;20108;-69
2021/10/19 11:05:51;;;;;;;14.60;10.20;;;;;;;20.16;46.18;97949.34;5026013;28;20061;-64
2021/10/19 11:08:26;;;;;;;11.85;8.00;;;;;;;19.96;47.20;97965.13;5025530;28;20090;-75
2021/10/19 11:11:03;;;;;;;11.48;8.75;;;;;;;18.71;47.45;97782.56;5025495;28;20476;-64
2021/10/19 11:13:51;;;;;;;10.38;8.60;;;;;;;19.98;48.34;98016.16;5024691;28;20136;-63
2021/10/19 11:16:28;;;;;;;15.30;9.85;;;;;;;19.02;49.06;97877.94;5025407;28;20046;-69
2021/10/19 11:18:55;;;;;;;12.25;9.20;;;;;;;19.29;47.37;97940.88;5025253;28;20061;-71
2021/10/19 11:21:21;;;;;;;13.48;9.68;;;;;;;19.46;48.85;98023.53;5025132;28;20060;-70
2021/10/19 11:23:48;;;;;;;47.70;20.25;;;;;;;18.51;48.73;97950.56;5025994;28;20143;-67
2021/10/19 11:26:15;;;;;;;11.82;9.15;;;;;;;17.80;49.60;97946.81;5025875;28;20531;-64